createdAt,value
2018-06-02T00:02:18.373Z,17.30
2018-06-02T00:04:45.959Z,17.30
2018-06-02T00:07:13.478Z,17.30
2018-06-02T00:09:40.998Z,17.30
2018-06-02T00:12:09.325Z,17.40
2018-06-02T00:14:36.851Z,17.30
2018-06-02T00:17:05.154Z,17.30
2018-06-02T00:19:32.688Z,17.30
2018-06-02T00:22:00.212Z,17.40
2018-06-02T00:24:27.741Z,17.40
2018-06-02T00:26:55.287Z,17.40
2018-06-02T00:29:22.797Z,17.40
2018-06-02T00:31:51.114Z,17.30
2018-06-02T00:34:18.675Z,17.30
2018-06-02T00:36:46.184Z,17.30
2018-06-02T00:39:13.820Z,17.20
2018-06-02T00:41:41.340Z,17.20
2018-06-02T00:44:08.872Z,17.30
2018-06-02T00:46:37.255Z,16.90
2018-06-02T00:49:05.592Z,16.80
2018-06-02T00:51:33.121Z,16.80
2018-06-02T00:54:00.649Z,16.80
2018-06-02T00:56:29.033Z,17.10
2018-06-02T00:58:56.585Z,17.10
2018-06-02T01:01:24.925Z,17.30
2018-06-02T01:03:52.635Z,17.30
2018-06-02T01:06:20.178Z,17.20
2018-06-02T01:08:48.471Z,17.20
2018-06-02T01:11:16.106Z,17.20
2018-06-02T01:13:44.464Z,17.50
2018-06-02T01:16:11.997Z,17.50
2018-06-02T01:18:39.591Z,17.40
2018-06-02T01:21:07.137Z,17.30
2018-06-02T01:23:34.670Z,17.50
2018-06-02T01:26:02.202Z,17.50
2018-06-02T01:28:29.775Z,17.50
2018-06-02T01:30:57.321Z,17.60
2018-06-02T01:33:24.892Z,17.50
2018-06-02T01:36:02.611Z,17.60
2018-06-02T01:38:30.169Z,17.50
2018-06-02T01:40:57.671Z,17.40
2018-06-02T01:43:25.963Z,17.40
2018-06-02T01:45:53.503Z,17.40
2018-06-02T01:48:21.924Z,17.30
2018-06-02T01:50:49.421Z,17.30
2018-06-02T01:53:16.941Z,17.20
2018-06-02T01:55:44.490Z,17.30
2018-06-02T01:58:12.042Z,17.30
2018-06-02T02:00:39.564Z,17.30
2018-06-02T02:03:07.851Z,17.30
2018-06-02T02:05:36.365Z,17.30
2018-06-02T02:08:03.898Z,17.30
2018-06-02T02:10:31.409Z,17.20
2018-06-02T02:12:59.331Z,17.30
2018-06-02T02:15:26.843Z,17.30
2018-06-02T02:17:54.357Z,17.30
2018-06-02T02:20:21.891Z,17.40
2018-06-02T02:22:49.411Z,17.40
2018-06-02T02:25:16.961Z,17.40
2018-06-02T02:27:44.490Z,17.30
2018-06-02T02:30:12.011Z,17.30
2018-06-02T02:32:40.300Z,17.40
2018-06-02T02:35:07.859Z,17.40
2018-06-02T02:37:35.411Z,17.50
2018-06-02T02:40:03.725Z,17.40
2018-06-02T02:42:31.275Z,17.40
2018-06-02T02:44:58.797Z,17.30
2018-06-02T02:47:27.152Z,17.20
2018-06-02T02:49:54.741Z,17.20
2018-06-02T02:52:23.035Z,16.90
2018-06-02T02:54:50.600Z,16.90
2018-06-02T02:57:18.149Z,16.90
2018-06-02T02:59:45.670Z,16.80
2018-06-02T03:02:13.257Z,16.80
2018-06-02T03:04:40.777Z,16.80
2018-06-02T03:07:08.302Z,16.80
2018-06-02T03:09:35.852Z,16.70
2018-06-02T03:12:03.398Z,16.70
2018-06-02T03:14:30.937Z,16.70
2018-06-02T03:16:58.460Z,16.70
2018-06-02T03:19:26.012Z,16.80
2018-06-02T03:21:53.556Z,16.70
2018-06-02T03:24:21.111Z,16.70
2018-06-02T03:26:48.745Z,16.70
2018-06-02T03:29:16.831Z,16.70
2018-06-02T03:31:44.325Z,16.80
2018-06-02T03:34:11.906Z,16.80
2018-06-02T03:36:40.328Z,16.70
2018-06-02T03:39:07.989Z,16.70
2018-06-02T03:41:35.509Z,16.70
2018-06-02T03:44:03.802Z,16.70
2018-06-02T03:46:31.328Z,16.70
2018-06-02T03:48:58.941Z,16.70
2018-06-02T03:51:26.447Z,16.70
2018-06-02T03:53:53.982Z,16.70
2018-06-02T03:56:21.612Z,16.70
2018-06-02T03:58:49.146Z,16.80
2018-06-02T04:01:16.658Z,16.70
2018-06-02T04:03:44.276Z,16.70
2018-06-02T04:06:11.806Z,16.70
2018-06-02T04:08:39.388Z,16.70
2018-06-02T04:11:06.960Z,16.70
2018-06-02T04:13:34.473Z,16.60
2018-06-02T04:16:02.009Z,16.60
2018-06-02T04:18:29.552Z,16.60
2018-06-02T04:20:57.066Z,16.60
2018-06-02T04:23:25.378Z,16.60
2018-06-02T04:25:52.929Z,16.60
2018-06-02T04:28:20.744Z,16.60
2018-06-02T04:30:48.327Z,16.60
2018-06-02T04:33:15.854Z,16.60
2018-06-02T04:35:43.480Z,16.50
2018-06-02T04:38:11.910Z,16.50
2018-06-02T04:40:40.213Z,16.60
2018-06-02T04:43:07.987Z,16.50
2018-06-02T04:45:35.488Z,16.60
2018-06-02T04:48:03.074Z,16.50
2018-06-02T04:50:31.380Z,16.60
2018-06-02T04:52:58.896Z,16.60
2018-06-02T04:55:26.494Z,16.60
2018-06-02T04:57:54.029Z,16.60
2018-06-02T05:00:22.334Z,16.60
2018-06-02T05:02:49.844Z,16.60
2018-06-02T05:05:18.175Z,16.70
2018-06-02T05:07:45.677Z,16.70
2018-06-02T05:10:13.184Z,16.80
2018-06-02T05:12:40.720Z,16.80
2018-06-02T05:15:08.270Z,16.90
2018-06-02T05:17:35.832Z,16.90
2018-06-02T05:20:03.525Z,16.90
2018-06-02T05:22:31.039Z,17.00
2018-06-02T05:24:59.450Z,17.10
2018-06-02T05:27:26.977Z,17.10
2018-06-02T05:29:56.168Z,17.20
2018-06-02T05:32:24.452Z,17.30
2018-06-02T05:34:52.833Z,17.40
2018-06-02T05:37:21.418Z,17.40
2018-06-02T05:39:49.730Z,17.40
2018-06-02T05:42:17.568Z,17.40
2018-06-02T05:44:45.877Z,17.60
2018-06-02T05:47:13.577Z,17.60
2018-06-02T05:49:41.845Z,17.70
2018-06-02T05:52:10.172Z,17.70
2018-06-02T05:54:38.064Z,17.70
2018-06-02T05:57:05.540Z,17.70
2018-06-02T05:59:37.150Z,17.80
2018-06-02T06:02:04.688Z,17.80
2018-06-02T06:04:32.225Z,17.90
2018-06-02T06:07:00.581Z,18.00
2018-06-02T06:09:28.218Z,18.00
2018-06-02T06:11:55.761Z,18.00
2018-06-02T06:14:23.612Z,18.10
2018-06-02T06:16:51.169Z,18.10
2018-06-02T06:19:19.451Z,18.10
2018-06-02T06:21:47.006Z,18.00
2018-06-02T06:24:14.532Z,18.10
2018-06-02T06:26:42.830Z,18.10
2018-06-02T06:29:10.718Z,18.10
2018-06-02T06:31:38.275Z,18.20
2018-06-02T06:34:05.845Z,18.30
2018-06-02T06:36:33.510Z,18.20
2018-06-02T06:39:01.017Z,18.30
2018-06-02T06:41:29.330Z,18.50
2018-06-02T06:43:57.013Z,18.50
2018-06-02T06:46:24.531Z,18.70
2018-06-02T06:48:52.105Z,18.70
2018-06-02T06:51:19.720Z,18.80
2018-06-02T06:53:47.296Z,19.00
2018-06-02T06:56:14.829Z,19.10
2018-06-02T06:58:42.371Z,19.10
2018-06-02T07:01:09.969Z,18.90
2018-06-02T07:03:38.266Z,18.90
2018-06-02T07:06:05.798Z,18.80
2018-06-02T07:08:34.118Z,19.40
2018-06-02T07:11:01.667Z,19.40
2018-06-02T07:13:29.293Z,19.50
2018-06-02T07:15:57.682Z,19.20
2018-06-02T07:18:26.004Z,19.10
2018-06-02T07:20:53.563Z,19.10
2018-06-02T07:23:21.065Z,19.10
2018-06-02T07:25:49.353Z,19.00
2018-06-02T07:28:16.949Z,19.00
2018-06-02T07:30:44.462Z,19.00
2018-06-02T07:33:12.740Z,19.20
2018-06-02T07:35:41.354Z,19.20
2018-06-02T07:38:08.907Z,19.20
2018-06-02T07:40:36.409Z,19.40
2018-06-02T07:43:04.203Z,19.70
2018-06-02T07:45:32.486Z,21.50
2018-06-02T07:48:00.087Z,21.40
2018-06-02T07:50:27.887Z,20.90
2018-06-02T07:52:55.423Z,20.60
2018-06-02T07:55:23.152Z,20.10
2018-06-02T07:57:50.679Z,19.90
2018-06-02T08:00:18.990Z,20.20
2018-06-02T08:02:46.539Z,20.10
2018-06-02T08:05:14.074Z,20.40
2018-06-02T08:10:08.603Z,20.50
2018-06-02T08:12:36.322Z,20.60
2018-06-02T08:15:03.926Z,21.30
2018-06-02T08:17:31.483Z,22.90
2018-06-02T08:19:59.864Z,23.50
2018-06-02T08:22:27.358Z,23.30
2018-06-02T08:24:54.867Z,24.20
2018-06-02T08:27:22.417Z,24.40
2018-06-02T08:29:49.956Z,24.40
2018-06-02T08:32:18.337Z,24.80
2018-06-02T08:34:46.620Z,24.50
2018-06-02T08:37:14.988Z,24.80
2018-06-02T08:39:43.316Z,25.30
2018-06-02T08:42:10.877Z,25.30
2018-06-02T08:44:38.584Z,24.90
2018-06-02T08:47:06.878Z,25.20
2018-06-02T08:49:35.179Z,25.30
2018-06-02T08:52:02.721Z,25.30
2018-06-02T08:54:30.289Z,25.80
2018-06-02T08:56:57.817Z,25.50
2018-06-02T08:59:25.439Z,25.60
2018-06-02T09:01:52.968Z,25.20
2018-06-02T09:04:20.946Z,25.30
2018-06-02T09:06:48.496Z,24.70
2018-06-02T09:09:15.987Z,24.90
2018-06-02T09:11:43.537Z,25.10
2018-06-02T09:14:11.082Z,24.10
2018-06-02T09:16:38.624Z,24.50
2018-06-02T09:19:06.590Z,24.90
2018-06-02T09:21:34.127Z,25.30
2018-06-02T09:24:01.703Z,25.70
2018-06-02T09:26:29.502Z,25.30
2018-06-02T09:28:57.026Z,25.20
2018-06-02T09:31:24.538Z,24.90
2018-06-02T09:33:52.163Z,24.90
2018-06-02T09:36:19.724Z,24.70
2018-06-02T09:38:47.243Z,24.30
2018-06-02T09:41:14.785Z,24.70
2018-06-02T09:43:43.073Z,25.70
2018-06-02T09:46:10.577Z,25.70
2018-06-02T09:48:38.133Z,26.30
2018-06-02T09:51:05.650Z,26.10
2018-06-02T09:53:33.187Z,25.00
2018-06-02T09:56:01.711Z,24.60
2018-06-02T09:58:29.205Z,24.60
2018-06-02T10:00:56.732Z,25.40
2018-06-02T10:03:24.366Z,25.60
2018-06-02T10:05:51.889Z,26.20
2018-06-02T10:08:19.861Z,25.80
2018-06-02T10:10:47.557Z,25.30
2018-06-02T10:13:15.090Z,25.10
2018-06-02T10:15:43.408Z,24.00
2018-06-02T10:18:10.969Z,24.00
2018-06-02T10:20:38.547Z,23.90
2018-06-02T10:23:06.070Z,23.70
2018-06-02T10:25:33.644Z,24.10
2018-06-02T10:28:01.204Z,23.80
2018-06-02T10:30:28.764Z,24.20
2018-06-02T10:32:56.528Z,24.10
2018-06-02T10:35:24.106Z,24.30
2018-06-02T10:37:52.372Z,23.60
2018-06-02T10:40:19.993Z,23.60
2018-06-02T10:42:47.570Z,23.60
2018-06-02T10:45:15.113Z,23.70
2018-06-02T10:47:42.655Z,23.80
2018-06-02T10:50:10.215Z,23.50
2018-06-02T10:52:37.926Z,23.40
2018-06-02T10:55:06.353Z,24.10
2018-06-02T10:57:34.647Z,23.90
2018-06-02T11:00:02.256Z,23.90
2018-06-02T11:02:29.851Z,24.00
2018-06-02T11:04:58.188Z,24.70
2018-06-02T11:07:25.680Z,24.70
2018-06-02T11:09:54.007Z,24.90
2018-06-02T11:12:21.571Z,24.90
2018-06-02T11:14:49.337Z,24.70
2018-06-02T11:17:16.928Z,24.70
2018-06-02T11:19:44.476Z,24.70
2018-06-02T11:22:12.007Z,25.10
2018-06-02T11:24:39.619Z,25.00
2018-06-02T11:27:08.096Z,25.00
2018-06-02T11:29:35.606Z,25.00
2018-06-02T11:32:03.201Z,24.80
2018-06-02T11:34:31.524Z,25.30
2018-06-02T11:36:59.057Z,25.30
2018-06-02T11:39:27.412Z,24.60
2018-06-02T11:41:55.704Z,24.40
2018-06-02T11:44:24.043Z,24.00
2018-06-02T11:46:51.596Z,24.00
2018-06-02T11:49:19.129Z,23.80
2018-06-02T11:51:46.652Z,23.70
2018-06-02T11:54:14.977Z,24.20
2018-06-02T11:56:42.514Z,24.20
2018-06-02T11:59:10.053Z,24.10
2018-06-02T12:01:37.664Z,24.30
2018-06-02T12:04:05.217Z,23.90
2018-06-02T12:06:33.063Z,24.10
2018-06-02T12:09:00.584Z,23.70
2018-06-02T12:11:28.105Z,23.50
2018-06-02T12:13:55.664Z,23.70
2018-06-02T12:16:23.199Z,23.70
2018-06-02T12:18:50.707Z,23.70
2018-06-02T12:21:19.028Z,23.60
2018-06-02T12:23:46.656Z,23.50
2018-06-02T12:26:15.065Z,23.30
2018-06-02T12:28:42.561Z,23.30
2018-06-02T12:31:10.170Z,23.50
2018-06-02T12:33:37.679Z,23.60
2018-06-02T12:36:05.217Z,23.90
2018-06-02T12:38:32.775Z,24.20
2018-06-02T12:41:00.343Z,24.10
2018-06-02T12:43:28.708Z,23.60
2018-06-02T12:45:56.392Z,23.60
2018-06-02T12:48:23.954Z,23.50
2018-06-02T12:50:52.256Z,23.70
2018-06-02T12:53:20.902Z,23.70
2018-06-02T12:55:48.369Z,23.60
2018-06-02T12:58:15.911Z,23.40
2018-06-02T13:00:43.682Z,23.70
2018-06-02T13:03:11.978Z,23.80
2018-06-02T13:05:39.484Z,23.70
2018-06-02T13:08:07.074Z,23.80
2018-06-02T13:10:34.630Z,24.00
2018-06-02T13:13:02.146Z,24.10
2018-06-02T13:15:29.740Z,23.90
2018-06-02T13:17:57.253Z,24.20
2018-06-02T13:20:24.831Z,24.50
2018-06-02T13:22:52.401Z,24.70
2018-06-02T13:25:19.960Z,24.10
2018-06-02T13:27:47.461Z,23.80
2018-06-02T13:30:18.729Z,24.00
2018-06-02T13:32:46.289Z,23.80
2018-06-02T13:35:13.843Z,23.90
2018-06-02T13:37:42.160Z,24.20
2018-06-02T13:40:09.636Z,24.10
2018-06-02T13:42:37.169Z,24.10
2018-06-02T13:47:39.234Z,23.80
2018-06-02T13:50:06.791Z,23.50
2018-06-02T13:52:34.341Z,23.50
2018-06-02T13:55:01.855Z,23.30
2018-06-02T13:57:29.427Z,23.40
2018-06-02T13:59:56.938Z,23.10
2018-06-02T14:02:24.461Z,23.40
2018-06-02T14:04:52.846Z,23.60
2018-06-02T14:07:20.389Z,23.60
2018-06-02T14:09:48.694Z,23.90
2018-06-02T14:12:16.358Z,23.90
2018-06-02T14:14:43.884Z,23.60
2018-06-02T14:17:12.188Z,23.70
2018-06-02T14:19:39.739Z,23.70
2018-06-02T14:22:07.258Z,23.60
2018-06-02T14:24:35.526Z,23.50
2018-06-02T14:27:03.082Z,23.50
2018-06-02T14:29:30.621Z,23.50
2018-06-02T14:31:58.222Z,23.40
2018-06-02T14:34:25.819Z,23.30
2018-06-02T14:36:53.350Z,22.90
2018-06-02T14:39:21.634Z,23.00
2018-06-02T14:41:49.183Z,23.00
2018-06-02T14:44:16.731Z,23.10
2018-06-02T14:46:45.043Z,23.00
2018-06-02T14:49:12.638Z,23.00
2018-06-02T14:51:40.176Z,23.00
2018-06-02T14:54:07.675Z,23.10
2018-06-02T14:56:35.227Z,23.30
2018-06-02T14:59:03.506Z,23.80
2018-06-02T15:01:31.033Z,23.80
2018-06-02T15:03:58.683Z,23.90
2018-06-02T15:06:26.252Z,23.70
2018-06-02T15:08:53.778Z,23.80
2018-06-02T15:11:21.402Z,23.80
2018-06-02T15:13:48.940Z,23.50
2018-06-02T15:16:16.443Z,23.50
2018-06-02T15:18:44.331Z,23.50
2018-06-02T15:21:11.870Z,23.70
2018-06-02T15:23:39.424Z,23.60
2018-06-02T15:26:07.292Z,23.50
2018-06-02T15:28:35.141Z,23.50
2018-06-02T15:31:03.489Z,23.30
2018-06-02T15:33:31.134Z,23.30
2018-06-02T15:35:58.710Z,23.30
2018-06-02T15:38:26.250Z,23.30
2018-06-02T15:40:54.035Z,23.30
2018-06-02T15:43:21.561Z,23.40
2018-06-02T15:45:49.208Z,23.50
2018-06-02T15:48:16.746Z,23.20
2018-06-02T15:50:44.248Z,23.20
2018-06-02T15:53:12.313Z,23.30
2018-06-02T15:55:39.955Z,23.40
2018-06-02T15:58:07.467Z,23.40
2018-06-02T16:00:35.738Z,23.10
2018-06-02T16:03:03.584Z,23.10
2018-06-02T16:05:31.189Z,23.30
2018-06-02T16:07:58.804Z,23.10
2018-06-02T16:10:26.400Z,23.00
2018-06-02T16:12:54.683Z,22.70
2018-06-02T16:15:22.993Z,22.60
2018-06-02T16:17:50.558Z,22.60
2018-06-02T16:20:18.235Z,22.40
2018-06-02T16:22:45.741Z,22.40
2018-06-02T16:25:13.286Z,22.60
2018-06-02T16:27:41.637Z,22.90
2018-06-02T16:30:09.242Z,22.90
2018-06-02T16:32:36.779Z,22.70
2018-06-02T16:35:05.118Z,22.80
2018-06-02T16:37:32.652Z,22.80
2018-06-02T16:40:00.230Z,22.70
2018-06-02T16:42:27.810Z,22.60
2018-06-02T16:44:55.421Z,22.60
2018-06-02T16:47:22.998Z,22.50
2018-06-02T16:49:50.530Z,22.40
2018-06-02T16:52:18.084Z,22.40
2018-06-02T16:54:45.704Z,22.20
2018-06-02T16:57:14.767Z,22.20
2018-06-02T16:59:42.381Z,22.20
2018-06-02T17:02:09.906Z,22.20
2018-06-02T17:04:37.512Z,22.10
2018-06-02T17:07:05.830Z,22.10
2018-06-02T17:09:33.391Z,22.10
2018-06-02T17:12:00.914Z,22.20
2018-06-02T17:14:28.453Z,22.10
2018-06-02T17:16:56.824Z,22.00
2018-06-02T17:19:25.134Z,22.00
2018-06-02T17:21:52.672Z,22.00
2018-06-02T17:24:20.940Z,22.00
2018-06-02T17:26:49.305Z,22.00
2018-06-02T17:29:17.633Z,22.00
2018-06-02T17:31:45.245Z,22.00
2018-06-02T17:34:12.767Z,21.80
2018-06-02T17:36:40.414Z,21.70
2018-06-02T17:39:07.932Z,21.70
2018-06-02T17:41:36.251Z,21.60
2018-06-02T17:44:03.798Z,21.50
2018-06-02T17:46:31.327Z,21.60
2018-06-02T17:48:59.625Z,21.50
2018-06-02T17:51:27.184Z,21.50
2018-06-02T17:53:54.714Z,21.40
2018-06-02T17:56:22.954Z,21.50
2018-06-02T17:58:50.553Z,21.50
2018-06-02T18:01:18.832Z,21.40
2018-06-02T18:03:46.359Z,21.40
2018-06-02T18:06:13.890Z,21.50
2018-06-02T18:08:41.545Z,21.40
2018-06-02T18:11:09.092Z,21.30
2018-06-02T18:13:36.627Z,21.30
2018-06-02T18:16:04.172Z,21.30
2018-06-02T18:18:32.463Z,21.10
2018-06-02T18:21:00.067Z,21.10
2018-06-02T18:23:27.633Z,21.10
2018-06-02T18:25:55.244Z,21.10
2018-06-02T18:28:23.560Z,21.00
2018-06-02T18:30:51.206Z,21.00
2018-06-02T18:33:18.734Z,21.00
2018-06-02T18:35:46.275Z,21.00
2018-06-02T18:38:14.585Z,20.90
2018-06-02T18:40:42.101Z,20.90
2018-06-02T18:43:10.428Z,20.90
2018-06-02T18:45:37.964Z,20.90
2018-06-02T18:48:05.506Z,20.80
2018-06-02T18:50:33.830Z,20.80
2018-06-02T18:53:01.366Z,20.70
2018-06-02T18:55:28.994Z,20.70
2018-06-02T18:57:57.339Z,20.60
2018-06-02T19:00:24.924Z,20.60
2018-06-02T19:02:52.668Z,20.60
2018-06-02T19:05:20.401Z,20.60
2018-06-02T19:07:47.935Z,20.60
2018-06-02T19:10:16.256Z,20.60
2018-06-02T19:12:44.445Z,20.60
2018-06-02T19:15:11.942Z,20.60
2018-06-02T19:17:42.678Z,20.50
2018-06-02T19:20:10.221Z,20.40
2018-06-02T19:22:37.834Z,20.40
2018-06-02T19:25:05.477Z,20.50
2018-06-02T19:27:33.436Z,20.40
2018-06-02T19:30:01.065Z,20.40
2018-06-02T19:32:28.912Z,20.30
2018-06-02T19:34:58.609Z,20.30
2018-06-02T19:37:27.019Z,20.20
2018-06-02T19:39:55.368Z,20.20
2018-06-02T19:42:22.894Z,20.20
2018-06-02T19:44:50.527Z,20.20
2018-06-02T19:47:21.054Z,20.20
2018-06-02T19:49:48.662Z,20.20
2018-06-02T19:52:16.216Z,20.10
2018-06-02T19:54:43.791Z,20.10
2018-06-02T19:57:11.360Z,20.10
2018-06-02T19:59:39.649Z,20.20
2018-06-02T20:02:08.859Z,20.10
2018-06-02T20:04:40.432Z,20.10
2018-06-02T20:07:08.866Z,19.90
2018-06-02T20:09:36.744Z,19.90
2018-06-02T20:12:04.281Z,19.80
2018-06-02T20:14:31.852Z,19.80
2018-06-02T20:16:59.348Z,19.70
2018-06-02T20:19:26.962Z,19.50
2018-06-02T20:21:56.172Z,19.40
2018-06-02T20:24:24.563Z,19.30
2018-06-02T20:26:52.239Z,19.20
2018-06-02T20:29:20.080Z,19.20
2018-06-02T20:31:48.447Z,19.00
2018-06-02T20:34:16.167Z,19.00
2018-06-02T20:36:43.732Z,19.00
2018-06-02T20:39:11.363Z,19.00
2018-06-02T20:41:39.037Z,18.90
2018-06-02T20:44:06.788Z,19.10
2018-06-02T20:46:34.531Z,19.20
2018-06-02T20:49:02.179Z,19.20
2018-06-02T20:51:31.771Z,19.10
2018-06-02T20:53:59.579Z,19.10
2018-06-02T20:56:27.158Z,19.00
2018-06-02T20:58:54.776Z,18.90
2018-06-02T21:01:23.145Z,18.80
2018-06-02T21:03:50.675Z,18.80
2018-06-02T21:06:18.217Z,18.70
2018-06-02T21:08:46.042Z,18.70
2018-06-02T21:11:13.584Z,18.70
2018-06-02T21:13:41.938Z,18.60
2018-06-02T21:16:09.557Z,18.60
2018-06-02T21:18:37.099Z,18.50
2018-06-02T21:21:04.615Z,18.50
2018-06-02T21:23:32.172Z,18.40
2018-06-02T21:25:59.704Z,18.40
2018-06-02T21:28:27.250Z,18.20
2018-06-02T21:30:56.459Z,18.10
2018-06-02T21:33:24.552Z,18.10
2018-06-02T21:35:52.317Z,18.10
2018-06-02T21:38:20.140Z,18.00
2018-06-02T21:40:47.692Z,18.00
2018-06-02T21:43:16.226Z,18.00
2018-06-02T21:45:43.810Z,17.90
2018-06-02T21:48:11.634Z,18.00
2018-06-02T21:50:39.150Z,18.00
2018-06-02T21:53:06.697Z,17.90
2018-06-02T21:55:35.007Z,17.80
2018-06-02T21:58:02.520Z,17.80
2018-06-02T22:00:30.914Z,17.90
2018-06-02T22:02:58.362Z,17.80
2018-06-02T22:05:26.637Z,17.90
2018-06-02T22:07:55.200Z,17.90
2018-06-02T22:10:22.746Z,17.80
2018-06-02T22:12:50.295Z,17.90
2018-06-02T22:15:17.865Z,18.00
2018-06-02T22:17:45.407Z,18.00
2018-06-02T22:20:12.964Z,18.10
2018-06-02T22:22:40.512Z,18.00
2018-06-02T22:25:08.039Z,18.10
2018-06-02T22:27:35.546Z,18.10
2018-06-02T22:30:03.209Z,18.10
2018-06-02T22:32:30.734Z,18.10
2018-06-02T22:34:58.248Z,18.20
2018-06-02T22:37:26.574Z,18.40
2018-06-02T22:39:54.096Z,18.40
2018-06-02T22:42:22.374Z,18.30
2018-06-02T22:44:49.925Z,18.30
2018-06-02T22:47:18.199Z,18.30
2018-06-02T22:49:46.475Z,18.20
2018-06-02T22:52:15.791Z,18.30
2018-06-02T22:54:44.067Z,18.40
2018-06-02T22:57:11.618Z,18.40
2018-06-02T22:59:39.140Z,18.30
2018-06-02T23:02:06.693Z,18.20
2018-06-02T23:04:34.196Z,18.20
2018-06-02T23:07:02.064Z,18.20
2018-06-02T23:09:29.639Z,18.10
2018-06-02T23:11:57.147Z,18.10
2018-06-02T23:14:25.471Z,18.10
2018-06-02T23:16:53.661Z,18.10
2018-06-02T23:19:21.303Z,18.10
2018-06-02T23:21:48.842Z,18.10
2018-06-02T23:24:16.346Z,18.10
2018-06-02T23:26:44.189Z,18.20
2018-06-02T23:29:11.809Z,18.30
2018-06-02T23:31:40.077Z,18.40
2018-06-02T23:34:07.626Z,18.40
2018-06-02T23:36:35.177Z,18.20
2018-06-02T23:39:02.699Z,18.20
2018-06-02T23:41:30.228Z,18.10
2018-06-02T23:43:58.580Z,18.20
2018-06-02T23:46:26.201Z,18.20
2018-06-02T23:48:53.725Z,18.10
2018-06-02T23:51:21.266Z,18.10
2018-06-02T23:53:49.616Z,18.00
2018-06-02T23:56:17.134Z,18.00
2018-06-02T23:58:44.983Z,18.00
